createdAt,value
2019-02-25T00:00:50.659Z,55.04
2019-02-25T00:03:18.817Z,55.46
2019-02-25T00:05:47.057Z,63.18
2019-02-25T00:08:15.270Z,57.84
2019-02-25T00:10:43.451Z,55.96
2019-02-25T00:13:11.741Z,56.02
2019-02-25T00:15:40.121Z,55.31
2019-02-25T00:18:08.262Z,55.08
2019-02-25T00:20:36.525Z,55.30
2019-02-25T00:23:04.857Z,60.53
2019-02-25T00:25:32.984Z,64.51
2019-02-25T00:28:01.472Z,62.14
2019-02-25T00:30:29.618Z,56.77
2019-02-25T00:32:57.834Z,56.84
2019-02-25T00:35:25.898Z,55.93
2019-02-25T00:37:54.106Z,55.68
2019-02-25T00:40:22.304Z,63.46
2019-02-25T00:42:50.436Z,57.79
2019-02-25T00:45:18.694Z,57.66
2019-02-25T00:47:47.014Z,63.91
2019-02-25T00:50:15.241Z,65.62
2019-02-25T00:52:43.537Z,57.71
2019-02-25T00:55:11.932Z,56.73
2019-02-25T00:57:40.080Z,56.44
2019-02-25T01:00:11.082Z,55.67
2019-02-25T01:02:39.195Z,55.14
2019-02-25T01:05:07.723Z,54.92
2019-02-25T01:07:35.837Z,58.02
2019-02-25T01:10:04.702Z,60.06
2019-02-25T01:12:32.840Z,56.14
2019-02-25T01:15:01.023Z,64.67
2019-02-25T01:17:29.295Z,58.04
2019-02-25T01:19:57.448Z,66.39
2019-02-25T01:22:25.615Z,58.87
2019-02-25T01:24:53.826Z,56.33
2019-02-25T01:27:22.271Z,55.52
2019-02-25T01:29:50.378Z,55.70
2019-02-25T01:32:18.601Z,63.02
2019-02-25T01:34:46.783Z,57.30
2019-02-25T01:37:14.889Z,56.04
2019-02-25T01:39:43.322Z,57.69
2019-02-25T01:42:11.514Z,66.00
2019-02-25T01:44:39.675Z,56.54
2019-02-25T01:47:07.929Z,55.77
2019-02-25T01:49:36.148Z,62.11
2019-02-25T01:52:04.292Z,55.91
2019-02-25T01:54:32.491Z,55.89
2019-02-25T01:57:00.690Z,65.71
2019-02-25T01:59:28.905Z,61.40
2019-02-25T02:01:57.089Z,67.38
2019-02-25T02:04:25.289Z,65.34
2019-02-25T02:06:53.439Z,59.40
2019-02-25T02:09:21.600Z,58.48
2019-02-25T02:11:49.801Z,60.53
2019-02-25T02:14:18.063Z,58.50
2019-02-25T02:16:46.242Z,61.47
2019-02-25T02:19:14.659Z,57.33
2019-02-25T02:21:42.847Z,56.99
2019-02-25T02:24:11.085Z,55.33
2019-02-25T02:26:39.266Z,61.43
2019-02-25T02:29:07.491Z,63.09
2019-02-25T02:31:35.674Z,67.47
2019-02-25T02:34:03.817Z,68.77
2019-02-25T02:36:32.039Z,59.81
2019-02-25T02:39:00.196Z,57.79
2019-02-25T02:41:28.400Z,58.15
2019-02-25T02:43:56.546Z,58.11
2019-02-25T02:46:52.589Z,56.25
2019-02-25T02:49:20.797Z,55.49
2019-02-25T02:51:48.980Z,65.82
2019-02-25T02:54:17.332Z,67.06
2019-02-25T02:56:45.488Z,66.23
2019-02-25T02:59:13.636Z,69.16
2019-02-25T03:01:41.983Z,57.86
2019-02-25T03:04:10.143Z,57.80
2019-02-25T03:06:38.386Z,57.26
2019-02-25T03:11:55.737Z,57.01
2019-02-25T03:14:23.842Z,55.62
2019-02-25T03:16:52.103Z,57.13
2019-02-25T03:19:20.285Z,63.86
2019-02-25T03:21:48.547Z,67.88
2019-02-25T03:24:16.823Z,69.10
2019-02-25T03:26:45.077Z,59.71
2019-02-25T03:29:13.296Z,60.25
2019-02-25T03:31:41.426Z,61.01
2019-02-25T03:34:09.596Z,61.63
2019-02-25T03:36:37.777Z,58.15
2019-02-25T03:39:07.261Z,60.05
2019-02-25T03:41:35.408Z,68.90
2019-02-25T03:44:03.637Z,68.50
2019-02-25T03:46:31.782Z,58.14
2019-02-25T03:48:59.921Z,67.85
2019-02-25T03:51:28.213Z,70.40
2019-02-25T03:53:56.389Z,70.35
2019-02-25T03:56:24.541Z,70.72
2019-02-25T03:58:52.718Z,57.86
2019-02-25T04:01:20.869Z,55.98
2019-02-25T04:03:49.215Z,56.14
2019-02-25T04:06:17.439Z,66.25
2019-02-25T04:08:45.559Z,68.13
2019-02-25T04:11:13.784Z,70.97
2019-02-25T04:13:41.943Z,71.40
2019-02-25T04:16:10.102Z,65.26
2019-02-25T04:18:38.295Z,71.09
2019-02-25T04:21:06.621Z,67.13
2019-02-25T04:23:34.796Z,70.40
2019-02-25T04:26:03.101Z,60.71
2019-02-25T04:28:31.193Z,62.23
2019-02-25T04:30:59.371Z,69.87
2019-02-25T04:33:27.542Z,69.56
2019-02-25T04:35:55.677Z,71.50
2019-02-25T04:38:23.815Z,72.21
2019-02-25T04:40:52.036Z,72.36
2019-02-25T04:43:20.327Z,72.86
2019-02-25T04:45:48.485Z,70.35
2019-02-25T04:48:16.680Z,72.94
2019-02-25T04:50:44.860Z,73.43
2019-02-25T04:53:13.183Z,73.19
2019-02-25T04:55:41.339Z,73.07
2019-02-25T04:58:09.542Z,72.97
2019-02-25T05:00:37.754Z,73.18
2019-02-25T05:03:05.849Z,59.18
2019-02-25T05:05:34.029Z,68.99
2019-02-25T05:08:02.139Z,71.52
2019-02-25T05:10:30.386Z,62.84
2019-02-25T05:13:03.227Z,71.03
2019-02-25T05:15:31.790Z,72.13
2019-02-25T05:17:59.974Z,72.63
2019-02-25T05:20:28.113Z,73.11
2019-02-25T05:22:56.288Z,73.47
2019-02-25T05:25:24.410Z,73.35
2019-02-25T05:27:52.617Z,71.31
2019-02-25T05:30:20.702Z,72.96
2019-02-25T05:32:48.906Z,73.52
2019-02-25T05:35:16.992Z,72.82
2019-02-25T05:37:45.139Z,73.56
2019-02-25T05:40:14.879Z,73.77
2019-02-25T05:42:43.266Z,74.13
2019-02-25T05:45:11.653Z,74.28
2019-02-25T05:47:39.839Z,71.83
2019-02-25T05:50:10.089Z,74.02
2019-02-25T05:52:38.277Z,74.38
2019-02-25T05:55:07.934Z,74.53
2019-02-25T05:57:36.135Z,74.06
2019-02-25T06:00:04.809Z,74.15
2019-02-25T06:02:33.119Z,63.57
2019-02-25T06:05:21.273Z,63.78
2019-02-25T06:07:49.663Z,67.34
2019-02-25T06:10:17.842Z,72.96
2019-02-25T06:12:46.039Z,73.06
2019-02-25T06:15:14.908Z,73.89
2019-02-25T06:17:43.010Z,74.43
2019-02-25T06:20:11.883Z,73.35
2019-02-25T06:22:40.091Z,74.16
2019-02-25T06:25:08.567Z,74.45
2019-02-25T06:27:36.768Z,74.84
2019-02-25T06:30:06.043Z,74.80
2019-02-25T06:32:34.216Z,73.26
2019-02-25T06:35:02.338Z,69.77
2019-02-25T06:37:30.524Z,73.63
2019-02-25T06:39:58.678Z,65.58
2019-02-25T06:42:27.026Z,73.54
2019-02-25T06:44:55.269Z,73.92
2019-02-25T06:47:23.438Z,74.14
2019-02-25T06:49:51.691Z,74.51
2019-02-25T06:52:20.215Z,74.59
2019-02-25T06:54:48.415Z,74.58
2019-02-25T06:57:16.658Z,74.59
2019-02-25T06:59:44.864Z,74.80
2019-02-25T07:02:13.097Z,74.26
2019-02-25T07:04:48.809Z,73.55
2019-02-25T07:07:35.977Z,74.63
2019-02-25T07:10:22.013Z,72.63
2019-02-25T07:13:06.277Z,71.41
2019-02-25T07:15:53.419Z,71.00
2019-02-25T07:18:40.719Z,69.75
2019-02-25T07:21:26.786Z,68.96
2019-02-25T07:24:16.772Z,69.28
2019-02-25T07:27:07.138Z,69.48
2019-02-25T07:29:54.270Z,68.94
2019-02-25T07:32:39.412Z,69.99
2019-02-25T07:35:16.527Z,68.47
2019-02-25T07:38:16.294Z,68.49
2019-02-25T07:41:09.609Z,66.76
2019-02-25T07:44:05.722Z,66.33
2019-02-25T07:46:47.503Z,66.15
2019-02-25T07:49:37.827Z,66.54
2019-02-25T07:52:33.846Z,66.02
2019-02-25T07:55:21.074Z,64.38
2019-02-25T07:57:58.935Z,63.08
2019-02-25T08:00:46.152Z,61.13
2019-02-25T08:03:48.304Z,64.27
2019-02-25T08:06:31.723Z,63.24
2019-02-25T08:09:18.743Z,63.16
2019-02-25T08:11:58.962Z,62.72
2019-02-25T08:14:48.999Z,62.83
2019-02-25T08:17:34.837Z,62.73
2019-02-25T08:20:19.557Z,61.58
2019-02-25T08:23:06.892Z,61.66
2019-02-25T08:25:44.920Z,58.28
2019-02-25T08:28:32.601Z,58.33
2019-02-25T08:31:18.586Z,56.61
2019-02-25T08:34:18.134Z,56.36
2019-02-25T08:37:42.630Z,55.77
2019-02-25T08:40:40.042Z,56.48
2019-02-25T08:43:42.814Z,55.19
2019-02-25T08:46:33.043Z,55.20
2019-02-25T08:49:04.840Z,52.72
2019-02-25T08:51:32.990Z,55.25
2019-02-25T08:54:01.207Z,54.93
2019-02-25T08:56:29.436Z,50.90
2019-02-25T08:58:57.582Z,51.60
2019-02-25T09:01:25.809Z,49.35
2019-02-25T09:03:54.003Z,50.42
2019-02-25T09:06:22.221Z,48.45
2019-02-25T09:08:50.424Z,50.44
2019-02-25T09:11:18.625Z,47.95
2019-02-25T09:13:46.765Z,54.91
2019-02-25T09:16:15.009Z,48.22
2019-02-25T09:18:43.141Z,46.03
2019-02-25T09:21:11.460Z,47.02
2019-02-25T09:23:39.563Z,45.69
2019-02-25T09:26:07.675Z,54.76
2019-02-25T09:28:35.855Z,44.76
2019-02-25T09:31:05.629Z,52.35
2019-02-25T09:33:33.953Z,51.25
2019-02-25T09:36:02.138Z,45.28
2019-02-25T09:38:30.358Z,46.16
2019-02-25T09:40:58.629Z,46.74
2019-02-25T09:43:27.167Z,49.78
2019-02-25T09:45:55.353Z,49.18
2019-02-25T09:48:23.757Z,49.08
2019-02-25T09:50:51.971Z,41.08
2019-02-25T09:53:20.220Z,49.96
2019-02-25T09:55:48.378Z,49.16
2019-02-25T09:58:16.665Z,44.24
2019-02-25T10:00:46.161Z,48.42
2019-02-25T10:03:14.461Z,48.74
2019-02-25T10:05:42.789Z,48.15
2019-02-25T10:08:11.129Z,39.01
2019-02-25T10:10:39.367Z,47.53
2019-02-25T10:13:07.591Z,41.58
2019-02-25T10:15:35.815Z,46.76
2019-02-25T10:18:04.110Z,36.28
2019-02-25T10:20:32.282Z,48.48
2019-02-25T10:23:00.637Z,41.71
2019-02-25T10:25:28.929Z,46.90
2019-02-25T10:27:57.161Z,46.32
2019-02-25T10:30:25.363Z,46.64
2019-02-25T10:32:53.530Z,46.45
2019-02-25T10:35:21.792Z,46.62
2019-02-25T10:37:49.969Z,34.30
2019-02-25T10:40:22.164Z,46.13
2019-02-25T10:42:48.121Z,46.56
2019-02-25T10:45:17.198Z,46.07
2019-02-25T10:47:46.608Z,44.68
2019-02-25T10:50:15.972Z,45.52
2019-02-25T10:52:44.923Z,44.19
2019-02-25T10:55:17.913Z,45.20
2019-02-25T10:57:46.181Z,43.94
2019-02-25T11:00:15.732Z,43.37
2019-02-25T11:02:44.626Z,29.98
2019-02-25T11:05:14.047Z,43.76
2019-02-25T11:07:42.199Z,43.10
2019-02-25T11:10:18.267Z,37.43
2019-02-25T11:12:46.559Z,29.25
2019-02-25T11:15:16.017Z,31.72
2019-02-25T11:17:45.542Z,30.98
2019-02-25T11:20:14.338Z,46.80
2019-02-25T11:22:44.071Z,44.84
2019-02-25T11:25:12.667Z,44.40
2019-02-25T11:27:40.965Z,42.66
2019-02-25T11:30:11.966Z,30.53
2019-02-25T11:32:40.006Z,42.78
2019-02-25T11:35:10.691Z,43.14
2019-02-25T11:37:38.613Z,42.24
2019-02-25T11:40:08.197Z,31.22
2019-02-25T11:42:36.365Z,45.89
2019-02-25T11:45:05.421Z,30.13
2019-02-25T11:47:34.037Z,39.82
2019-02-25T11:50:02.233Z,42.08
2019-02-25T11:52:30.446Z,42.32
2019-02-25T11:54:58.720Z,27.83
2019-02-25T11:57:27.009Z,44.41
2019-02-25T11:59:55.211Z,34.66
2019-02-25T12:02:25.992Z,24.82
2019-02-25T12:04:53.399Z,40.04
2019-02-25T12:07:21.914Z,42.86
2019-02-25T12:09:50.098Z,42.96
2019-02-25T12:12:18.426Z,40.99
2019-02-25T12:14:46.593Z,37.88
2019-02-25T12:17:14.757Z,29.18
2019-02-25T12:19:42.934Z,43.24
2019-02-25T12:22:11.147Z,36.13
2019-02-25T12:24:39.353Z,39.04
2019-02-25T12:27:07.826Z,21.49
2019-02-25T12:29:36.129Z,21.59
2019-02-25T12:32:04.643Z,39.49
2019-02-25T12:34:32.821Z,43.18
2019-02-25T12:37:01.217Z,40.39
2019-02-25T12:39:29.464Z,21.57
2019-02-25T12:41:57.676Z,43.73
2019-02-25T12:44:26.221Z,40.00
2019-02-25T12:46:54.391Z,39.23
2019-02-25T12:49:22.677Z,39.51
2019-02-25T12:51:50.783Z,39.85
2019-02-25T12:54:19.100Z,38.52
2019-02-25T12:56:47.494Z,38.52
2019-02-25T12:59:15.695Z,37.80
2019-02-25T13:01:43.881Z,38.29
2019-02-25T13:04:12.050Z,38.50
2019-02-25T13:06:40.338Z,38.24
2019-02-25T13:09:13.468Z,37.20
2019-02-25T13:11:41.682Z,38.14
2019-02-25T13:14:09.859Z,37.40
2019-02-25T13:16:38.150Z,39.14
2019-02-25T13:19:06.379Z,38.43
2019-02-25T13:21:34.706Z,39.11
2019-02-25T13:24:04.607Z,37.71
2019-02-25T13:26:33.997Z,38.20
2019-02-25T13:29:02.776Z,34.84
2019-02-25T13:31:31.026Z,35.50
2019-02-25T13:34:00.404Z,36.29
2019-02-25T13:36:28.616Z,37.15
2019-02-25T13:38:56.843Z,37.01
2019-02-25T13:41:25.319Z,36.33
2019-02-25T13:43:53.506Z,36.62
2019-02-25T13:46:21.835Z,36.44
2019-02-25T13:48:50.066Z,37.83
2019-02-25T13:51:18.261Z,38.59
2019-02-25T13:53:46.447Z,39.18
2019-02-25T13:56:14.803Z,38.89
2019-02-25T13:58:43.435Z,38.58
2019-02-25T14:01:13.091Z,40.45
2019-02-25T14:03:41.452Z,41.16
2019-02-25T14:06:09.917Z,41.45
2019-02-25T14:08:38.071Z,41.71
2019-02-25T14:11:06.405Z,43.30
2019-02-25T14:13:34.613Z,40.88
2019-02-25T14:16:02.934Z,40.75
2019-02-25T14:18:31.303Z,40.49
2019-02-25T14:20:59.581Z,41.29
2019-02-25T14:23:27.910Z,41.32
2019-02-25T14:25:58.799Z,40.83
2019-02-25T14:28:26.425Z,40.69
2019-02-25T14:30:54.839Z,41.00
2019-02-25T14:33:23.694Z,41.81
2019-02-25T14:35:53.098Z,41.86
2019-02-25T14:38:23.248Z,42.04
2019-02-25T14:40:53.851Z,40.36
2019-02-25T14:43:22.477Z,39.00
2019-02-25T14:45:53.967Z,40.45
2019-02-25T14:48:21.029Z,40.27
2019-02-25T14:50:49.661Z,40.61
2019-02-25T14:53:17.906Z,41.07
2019-02-25T14:55:47.781Z,41.85
2019-02-25T14:58:17.364Z,42.34
2019-02-25T15:00:45.825Z,42.59
2019-02-25T15:03:14.194Z,43.09
2019-02-25T15:05:42.766Z,42.96
2019-02-25T15:08:11.300Z,26.89
2019-02-25T15:10:40.784Z,28.71
2019-02-25T15:13:10.598Z,31.70
2019-02-25T15:15:41.129Z,28.81
2019-02-25T15:18:09.908Z,44.39
2019-02-25T15:20:38.222Z,41.02
2019-02-25T15:23:07.507Z,38.63
2019-02-25T15:25:36.593Z,44.72
2019-02-25T15:28:09.365Z,39.99
2019-02-25T15:30:35.698Z,44.90
2019-02-25T15:33:03.911Z,47.07
2019-02-25T15:35:34.576Z,46.87
2019-02-25T15:38:02.023Z,32.51
2019-02-25T15:40:30.290Z,35.38
2019-02-25T15:43:03.352Z,33.47
2019-02-25T15:45:35.002Z,34.46
2019-02-25T15:48:03.475Z,45.57
2019-02-25T15:50:32.086Z,47.75
2019-02-25T15:53:02.791Z,43.18
2019-02-25T15:55:31.090Z,34.17
2019-02-25T15:57:59.327Z,50.12
2019-02-25T16:00:30.048Z,42.33
2019-02-25T16:02:58.985Z,48.65
2019-02-25T16:05:29.522Z,48.36
2019-02-25T16:08:00.664Z,35.30
2019-02-25T16:10:28.569Z,38.67
2019-02-25T16:12:57.762Z,36.88
2019-02-25T16:15:27.236Z,36.80
2019-02-25T16:17:56.403Z,47.51
2019-02-25T16:20:25.506Z,43.04
2019-02-25T16:22:56.349Z,52.25
2019-02-25T16:25:25.243Z,43.62
2019-02-25T16:27:54.239Z,38.20
2019-02-25T16:30:25.799Z,39.18
2019-02-25T16:32:53.659Z,46.99
2019-02-25T16:35:21.994Z,42.19
2019-02-25T16:37:50.754Z,42.93
2019-02-25T16:40:20.256Z,42.93
2019-02-25T16:42:54.991Z,41.90
2019-02-25T16:45:22.043Z,58.17
2019-02-25T16:47:50.267Z,56.50
2019-02-25T16:50:19.282Z,55.20
2019-02-25T16:52:49.364Z,44.03
2019-02-25T16:55:19.979Z,43.49
2019-02-25T16:57:48.226Z,54.91
2019-02-25T17:00:17.516Z,54.30
2019-02-25T17:02:47.733Z,43.40
2019-02-25T17:05:15.810Z,54.72
2019-02-25T17:07:44.716Z,57.27
2019-02-25T17:10:16.143Z,55.64
2019-02-25T17:12:45.707Z,56.55
2019-02-25T17:15:15.896Z,55.31
2019-02-25T17:17:44.087Z,54.86
2019-02-25T17:20:14.022Z,54.31
2019-02-25T17:22:42.417Z,54.34
2019-02-25T17:25:12.086Z,54.32
2019-02-25T17:27:40.945Z,54.15
2019-02-25T17:30:15.191Z,54.34
2019-02-25T17:32:44.135Z,54.27
2019-02-25T17:35:14.994Z,54.18
2019-02-25T17:37:43.552Z,54.30
2019-02-25T17:40:13.122Z,54.18
2019-02-25T17:42:41.615Z,54.06
2019-02-25T17:45:12.670Z,54.25
2019-02-25T17:47:41.932Z,53.94
2019-02-25T17:50:11.852Z,53.77
2019-02-25T17:52:42.535Z,54.06
2019-02-25T17:55:12.970Z,53.98
2019-02-25T17:57:41.246Z,53.78
2019-02-25T18:02:57.167Z,53.29
2019-02-25T18:05:26.177Z,53.12
2019-02-25T18:07:54.500Z,53.08
2019-02-25T18:10:24.724Z,53.19
2019-02-25T18:12:54.563Z,53.48
2019-02-25T18:15:26.172Z,53.81
2019-02-25T18:17:55.480Z,54.00
2019-02-25T18:20:24.413Z,53.83
2019-02-25T18:22:52.803Z,53.88
2019-02-25T18:25:21.147Z,53.43
2019-02-25T18:27:50.470Z,53.45
2019-02-25T18:30:20.979Z,54.30
2019-02-25T18:32:50.468Z,53.69
2019-02-25T18:35:21.197Z,53.68
2019-02-25T18:37:50.012Z,53.92
2019-02-25T18:40:20.681Z,54.15
2019-02-25T18:42:48.421Z,54.34
2019-02-25T18:45:18.433Z,54.22
2019-02-25T18:47:50.385Z,54.46
2019-02-25T18:50:21.760Z,54.47
2019-02-25T18:52:52.908Z,54.65
2019-02-25T18:55:23.268Z,54.67
2019-02-25T18:57:53.388Z,54.79
2019-02-25T19:00:29.969Z,55.47
2019-02-25T19:03:00.360Z,55.30
2019-02-25T19:05:31.453Z,55.24
2019-02-25T19:08:02.334Z,54.96
2019-02-25T19:10:31.208Z,54.92
2019-02-25T19:13:03.022Z,54.77
2019-02-25T19:15:31.838Z,54.97
2019-02-25T19:18:00.769Z,55.05
2019-02-25T19:20:29.717Z,54.90
2019-02-25T19:23:02.601Z,55.07
2019-02-25T19:25:29.588Z,55.12
2019-02-25T19:27:58.757Z,54.92
2019-02-25T19:30:29.775Z,54.93
2019-02-25T19:33:09.057Z,55.08
2019-02-25T19:35:30.456Z,55.00
2019-02-25T19:38:01.238Z,54.93
2019-02-25T19:40:29.409Z,55.06
2019-02-25T19:42:59.537Z,55.33
2019-02-25T19:45:28.016Z,55.43
2019-02-25T19:47:58.365Z,55.77
2019-02-25T19:50:27.703Z,55.46
2019-02-25T19:52:56.042Z,56.01
2019-02-25T19:55:24.450Z,57.60
2019-02-25T19:57:52.906Z,55.79
2019-02-25T20:00:30.267Z,56.53
2019-02-25T20:03:05.218Z,58.12
2019-02-25T20:05:29.315Z,59.30
2019-02-25T20:07:57.871Z,57.90
2019-02-25T20:10:26.094Z,56.59
2019-02-25T20:12:55.616Z,55.50
2019-02-25T20:15:25.238Z,55.49
2019-02-25T20:17:55.265Z,55.57
2019-02-25T20:23:17.323Z,55.38
2019-02-25T20:25:48.781Z,55.66
2019-02-25T20:28:18.643Z,55.66
2019-02-25T20:30:48.960Z,55.60
2019-02-25T20:33:17.631Z,55.78
2019-02-25T20:35:51.034Z,55.74
2019-02-25T20:38:16.851Z,55.79
2019-02-25T20:40:50.817Z,55.72
2019-02-25T20:43:21.267Z,55.77
2019-02-25T20:45:52.103Z,55.69
2019-02-25T20:48:19.129Z,55.84
2019-02-25T20:50:48.398Z,55.92
2019-02-25T20:53:17.007Z,55.83
2019-02-25T20:55:45.548Z,55.97
2019-02-25T20:58:16.256Z,56.44
2019-02-25T21:00:46.491Z,56.17
2019-02-25T21:03:16.027Z,55.99
2019-02-25T21:05:46.660Z,55.96
2019-02-25T21:08:16.911Z,56.39
2019-02-25T21:10:46.049Z,56.07
2019-02-25T21:13:14.456Z,56.23
2019-02-25T21:15:45.291Z,56.37
2019-02-25T21:18:13.398Z,56.31
2019-02-25T21:20:43.041Z,56.51
2019-02-25T21:23:12.547Z,58.25
2019-02-25T21:25:41.131Z,56.57
2019-02-25T21:28:11.253Z,56.40
2019-02-25T21:30:41.344Z,56.38
2019-02-25T21:33:13.335Z,56.30
2019-02-25T21:35:40.209Z,56.63
2019-02-25T21:38:09.461Z,56.28
2019-02-25T21:40:37.882Z,56.34
2019-02-25T21:43:06.275Z,56.66
2019-02-25T21:45:34.584Z,56.44
2019-02-25T21:48:04.789Z,56.53
2019-02-25T21:50:34.040Z,56.82
2019-02-25T21:53:04.910Z,56.25
2019-02-25T21:55:34.790Z,59.66
2019-02-25T21:58:04.849Z,64.01
2019-02-25T22:00:35.133Z,59.88
2019-02-25T22:03:04.493Z,57.57
2019-02-25T22:05:32.542Z,56.96
2019-02-25T22:08:02.274Z,56.74
2019-02-25T22:10:34.054Z,56.57
2019-02-25T22:13:04.382Z,56.42
2019-02-25T22:15:31.122Z,56.55
2019-02-25T22:17:59.344Z,56.63
2019-02-25T22:20:27.522Z,56.81
2019-02-25T22:22:57.434Z,56.48
2019-02-25T22:25:25.738Z,56.54
2019-02-25T22:27:53.965Z,56.30
2019-02-25T22:30:22.238Z,56.57
2019-02-25T22:32:50.638Z,56.70
2019-02-25T22:35:19.070Z,56.61
2019-02-25T22:37:49.623Z,56.69
2019-02-25T22:40:17.565Z,56.98
2019-02-25T22:42:49.830Z,57.15
2019-02-25T22:45:18.884Z,57.76
2019-02-25T22:47:47.043Z,57.44
2019-02-25T22:50:15.442Z,56.72
2019-02-25T22:52:43.535Z,56.67
2019-02-25T22:55:12.932Z,56.70
2019-02-25T22:57:43.468Z,57.44
2019-02-25T23:00:52.722Z,62.88
2019-02-25T23:03:24.571Z,58.57
2019-02-25T23:05:53.414Z,63.18
2019-02-25T23:08:23.413Z,57.22
2019-02-25T23:10:52.296Z,57.10
2019-02-25T23:13:22.686Z,58.53
2019-02-25T23:15:51.721Z,59.04
2019-02-25T23:18:22.894Z,59.68
2019-02-25T23:20:54.454Z,57.74
2019-02-25T23:23:23.466Z,57.11
2019-02-25T23:25:51.406Z,57.66
2019-02-25T23:28:22.919Z,65.82
2019-02-25T23:30:50.846Z,64.78
2019-02-25T23:33:21.832Z,66.07
2019-02-25T23:35:49.717Z,70.74
2019-02-25T23:38:18.999Z,72.12
2019-02-25T23:40:47.238Z,69.82
2019-02-25T23:43:16.832Z,67.96
2019-02-25T23:45:46.381Z,72.77
2019-02-25T23:48:14.565Z,71.28
2019-02-25T23:50:42.839Z,65.24
2019-02-25T23:53:11.005Z,60.37
2019-02-25T23:55:39.135Z,59.11
2019-02-25T23:58:10.267Z,57.93
